Sant Andreu de la Barca, Spain
Current Conditions -  °F | °C
As of 1:00 PM on Tuesday 27 Jan 2015 (Local Time) from LELL Reporting Station
Clear Clear  
Wind Chill: 55°   Ceiling: Unl
Heat Index: 55°   Visibility: 6mi
Dew Point: 39°   Wind: 3mph
Humidity: 54%   Direction: 280°W
Pressure: 30.15"   Gusts: NA
Location:  41.45°N, 1.97°E
Report Text: LELL 271200Z 28003KT 240V340 CAVOK 13/04 Q1021
Loading
Personal Weather Stations






























Interactive Weather Map New forecast layout! Learn more

10-Day Weather Forecast

Advertisements
Track Severe Weather on mobile